Time;durP1;ratioP1;P1;durP2;ratioP2;P2;SDS_P1;SDS_P2;PMS_P1;PMS_P2;Temp;Humidity;BMP_temperature;BMP_pressure;BME280_temperature;BME280_humidity;BME280_pressure;Samples;Min_cycle;Max_cycle;Signal;HPM_P1;HPM_P2
2021/06/25 00:01:43;;;;;;;0.88;0.20;;;18.20;66.40;;;;;;5060310;28;20025;-76
2021/06/25 00:04:09;;;;;;;0.20;0.20;;;18.20;65.50;;;;;;5053324;28;20103;-76
2021/06/25 00:06:34;;;;;;;0.22;0.20;;;18.30;65.30;;;;;;5054905;28;20051;-76
2021/06/25 00:09:00;;;;;;;0.20;0.20;;;18.20;65.40;;;;;;5054876;28;20053;-76
2021/06/25 00:11:26;;;;;;;0.10;0.10;;;18.20;65.40;;;;;;5048286;28;20038;-76
2021/06/25 00:13:54;;;;;;;0.20;0.20;;;18.30;65.00;;;;;;5038765;28;20115;-76
2021/06/25 00:16:19;;;;;;;0.20;0.20;;;18.30;65.30;;;;;;5038570;28;20026;-76
2021/06/25 00:18:45;;;;;;;0.20;0.20;;;18.30;65.30;;;;;;5053837;28;20539;-76
2021/06/25 00:21:11;;;;;;;0.20;0.20;;;18.20;66.10;;;;;;5038506;28;20026;-76
2021/06/25 00:23:37;;;;;;;0.20;0.20;;;18.20;65.40;;;;;;5038566;28;20025;-76
2021/06/25 00:26:02;;;;;;;0.20;0.20;;;18.20;65.50;;;;;;5038687;28;20021;-76
2021/06/25 00:28:28;;;;;;;0.20;0.20;;;18.20;65.50;;;;;;5053533;28;20053;-76
2021/06/25 00:30:56;;;;;;;0.30;0.20;;;18.20;65.70;;;;;;5056746;28;20025;-76
2021/06/25 00:33:22;;;;;;;0.25;0.20;;;18.10;65.80;;;;;;5056932;28;20029;-76
2021/06/25 00:35:48;;;;;;;0.20;0.20;;;18.10;65.90;;;;;;5052567;28;20063;-76
2021/06/25 00:38:14;;;;;;;0.20;0.20;;;18.00;65.60;;;;;;5053581;28;20076;-76
2021/06/25 00:40:40;;;;;;;0.35;0.30;;;18.00;65.80;;;;;;5053538;28;20020;-76
2021/06/25 00:43:06;;;;;;;0.20;0.20;;;17.90;65.90;;;;;;5036906;28;20026;-76
2021/06/25 00:45:31;;;;;;;0.20;0.20;;;17.90;66.10;;;;;;5037990;28;20479;-76
2021/06/25 00:47:58;;;;;;;0.30;0.20;;;17.80;66.40;;;;;;5038154;28;20029;-76
2021/06/25 00:50:27;;;;;;;0.30;0.20;;;17.70;66.50;;;;;;5053219;28;20076;-76
2021/06/25 00:52:55;;;;;;;0.20;0.20;;;17.70;67.10;;;;;;5052133;28;20496;-76
2021/06/25 00:55:23;;;;;;;0.30;0.20;;;17.50;67.70;;;;;;5037963;28;20033;-76
2021/06/25 00:57:50;;;;;;;0.20;0.20;;;17.50;67.30;;;;;;5037667;28;20072;-76
2021/06/25 01:00:16;;;;;;;0.20;0.20;;;17.50;67.60;;;;;;5071149;28;20017;-76
2021/06/25 01:02:43;;;;;;;0.35;0.30;;;17.40;67.70;;;;;;5051166;28;20243;-76
2021/06/25 01:05:09;;;;;;;0.30;0.20;;;17.40;67.70;;;;;;5052994;28;20025;-76
2021/06/25 01:07:35;;;;;;;0.30;0.30;;;17.40;68.00;;;;;;5037696;28;20040;-76
2021/06/25 01:10:07;;;;;;;0.30;0.30;;;17.40;67.80;;;;;;5037472;28;20037;-76
2021/06/25 01:12:33;;;;;;;0.25;0.20;;;17.30;68.40;;;;;;5052909;28;20083;-76
2021/06/25 01:14:59;;;;;;;0.30;0.20;;;17.30;68.20;;;;;;5037698;28;20040;-76
2021/06/25 01:17:34;;;;;;;0.40;0.30;;;17.30;68.50;;;;;;5036074;28;20136;-76
2021/06/25 01:20:03;;;;;;;0.20;0.20;;;17.30;68.50;;;;;;5037249;28;20021;-76
2021/06/25 01:22:34;;;;;;;0.22;0.20;;;17.30;69.00;;;;;;5037141;28;20028;-75
2021/06/25 01:25:17;;;;;;;0.50;0.30;;;17.30;69.60;;;;;;5045713;28;20021;-76
2021/06/25 01:27:44;;;;;;;0.22;0.20;;;17.30;68.50;;;;;;5052070;28;20049;-75
2021/06/25 01:30:14;;;;;;;0.38;0.30;;;17.30;68.50;;;;;;5037250;28;20057;-76
2021/06/25 01:32:41;;;;;;;0.20;0.20;;;17.20;68.60;;;;;;5037105;28;20105;-76
2021/06/25 01:35:08;;;;;;;0.30;0.30;;;17.20;69.70;;;;;;5035763;28;20036;-76
2021/06/25 01:37:34;;;;;;;0.25;0.20;;;17.10;69.60;;;;;;5036875;28;20033;-76
2021/06/25 01:40:00;;;;;;;0.22;0.20;;;17.20;68.70;;;;;;5037233;28;20050;-76
2021/06/25 01:42:26;;;;;;;0.30;0.20;;;17.20;69.90;;;;;;5043644;28;20048;-76
2021/06/25 01:44:53;;;;;;;0.30;0.30;;;17.10;70.50;;;;;;5056941;28;20048;-76
2021/06/25 01:47:19;;;;;;;0.20;0.20;;;17.20;69.50;;;;;;5056999;28;20140;-76
2021/06/25 01:49:44;;;;;;;0.40;0.30;;;17.10;71.10;;;;;;5056806;28;20025;-76
2021/06/25 01:52:18;;;;;;;0.40;0.35;;;17.10;70.30;;;;;;5048428;28;20455;-76
2021/06/25 01:54:44;;;;;;;0.28;0.28;;;17.20;69.90;;;;;;5036801;28;20022;-76
2021/06/25 01:57:10;;;;;;;0.30;0.28;;;17.20;69.90;;;;;;5035472;28;20052;-76
2021/06/25 01:59:35;;;;;;;0.30;0.20;;;17.30;70.00;;;;;;5058376;28;20029;-76
2021/06/25 02:02:01;;;;;;;0.30;0.30;;;17.30;69.60;;;;;;5076649;28;20029;-75
2021/06/25 02:04:27;;;;;;;0.30;0.20;;;17.30;69.30;;;;;;5059490;28;20021;-76
2021/06/25 02:06:52;;;;;;;0.20;0.20;;;17.30;70.20;;;;;;5056533;28;20488;-76
2021/06/25 02:09:18;;;;;;;0.30;0.30;;;17.30;69.70;;;;;;5056679;28;20028;-76
2021/06/25 02:11:44;;;;;;;0.30;0.20;;;17.30;70.10;;;;;;5055158;28;20472;-76
2021/06/25 02:14:09;;;;;;;0.20;0.20;;;17.30;70.40;;;;;;5041532;28;20029;-76
2021/06/25 02:16:35;;;;;;;0.22;0.22;;;17.30;70.10;;;;;;5036351;28;20041;-76
2021/06/25 02:19:01;;;;;;;0.30;0.28;;;17.20;71.00;;;;;;5036380;28;20045;-76
2021/06/25 02:21:27;;;;;;;0.40;0.30;;;17.20;71.70;;;;;;5036295;28;20100;-76
2021/06/25 02:23:54;;;;;;;0.20;0.20;;;17.10;72.10;;;;;;5035449;28;20017;-76
2021/06/25 02:26:19;;;;;;;0.30;0.30;;;17.00;72.10;;;;;;5056202;28;20032;-76
2021/06/25 02:28:45;;;;;;;0.30;0.30;;;17.10;71.80;;;;;;5056141;28;20127;-76
2021/06/25 02:31:11;;;;;;;0.30;0.30;;;17.00;72.50;;;;;;5056211;28;20029;-76
2021/06/25 02:33:36;;;;;;;0.32;0.30;;;17.00;72.70;;;;;;5036830;28;20038;-75
2021/06/25 02:36:02;;;;;;;0.30;0.30;;;17.00;72.90;;;;;;5034768;28;20396;-76
2021/06/25 02:38:28;;;;;;;0.40;0.30;;;17.00;72.50;;;;;;5034534;28;20449;-76
2021/06/25 02:40:53;;;;;;;0.25;0.20;;;17.00;72.30;;;;;;5036002;28;20036;-76
2021/06/25 02:43:19;;;;;;;0.30;0.30;;;17.00;72.20;;;;;;5034613;28;20025;-76
2021/06/25 02:45:45;;;;;;;0.40;0.30;;;17.10;72.40;;;;;;5034561;28;20036;-76
2021/06/25 02:48:11;;;;;;;0.35;0.30;;;17.10;72.10;;;;;;5034494;28;20029;-76
2021/06/25 02:50:36;;;;;;;0.32;0.32;;;17.00;72.40;;;;;;5035754;28;20033;-76
2021/06/25 02:53:02;;;;;;;0.20;0.20;;;16.90;73.10;;;;;;5035689;28;20030;-76
2021/06/25 02:55:28;;;;;;;0.28;0.28;;;16.80;73.90;;;;;;5035702;28;20048;-76
2021/06/25 02:57:54;;;;;;;0.20;0.20;;;16.80;73.80;;;;;;5035436;28;20112;-76
2021/06/25 03:00:20;;;;;;;0.20;0.20;;;16.90;73.10;;;;;;5069734;28;20483;-76
2021/06/25 03:02:45;;;;;;;0.20;0.20;;;17.00;72.60;;;;;;5056789;28;20031;-76
2021/06/25 03:05:14;;;;;;;0.20;0.20;;;17.20;72.30;;;;;;5035365;28;20434;-76
2021/06/25 03:07:40;;;;;;;0.40;0.30;;;17.20;72.00;;;;;;5050909;28;20063;-76
2021/06/25 03:10:07;;;;;;;0.30;0.30;;;17.20;71.80;;;;;;5035585;28;20040;-76
2021/06/25 03:12:33;;;;;;;0.35;0.30;;;17.30;71.30;;;;;;5050682;28;20025;-76
2021/06/25 03:14:59;;;;;;;0.30;0.30;;;17.30;71.10;;;;;;5050720;28;20029;-76
2021/06/25 03:17:25;;;;;;;0.20;0.20;;;17.30;71.00;;;;;;5053303;28;20544;-76
2021/06/25 03:19:51;;;;;;;0.20;0.20;;;17.40;70.80;;;;;;5055263;28;20029;-76
2021/06/25 03:22:17;;;;;;;0.30;0.30;;;17.40;70.80;;;;;;5035908;28;20558;-76
2021/06/25 03:24:43;;;;;;;0.28;0.20;;;17.40;70.90;;;;;;5033977;28;20037;-76
2021/06/25 03:27:09;;;;;;;0.30;0.20;;;17.40;71.00;;;;;;5035000;28;20512;-76
2021/06/25 03:29:35;;;;;;;0.20;0.20;;;17.40;70.80;;;;;;5035459;28;20029;-76
2021/06/25 03:32:01;;;;;;;0.20;0.20;;;17.40;71.50;;;;;;5035970;28;20025;-75
2021/06/25 03:34:27;;;;;;;0.30;0.20;;;17.40;72.10;;;;;;5053670;28;20044;-76
2021/06/25 03:36:53;;;;;;;0.25;0.22;;;17.30;71.70;;;;;;5055115;28;20025;-76
2021/06/25 03:39:18;;;;;;;0.30;0.30;;;17.40;71.40;;;;;;5046501;28;20048;-76
2021/06/25 03:41:44;;;;;;;0.30;0.20;;;17.40;71.70;;;;;;5033806;28;20026;-76
2021/06/25 03:44:10;;;;;;;0.20;0.20;;;17.50;71.60;;;;;;5036157;28;20539;-76
2021/06/25 03:46:35;;;;;;;0.20;0.20;;;17.50;72.20;;;;;;5039142;28;20018;-76
2021/06/25 03:49:01;;;;;;;0.22;0.20;;;17.50;72.10;;;;;;5039146;28;20403;-76
2021/06/25 03:51:27;;;;;;;0.30;0.30;;;17.50;72.30;;;;;;5039292;28;20021;-76
2021/06/25 03:53:52;;;;;;;0.25;0.20;;;17.50;72.10;;;;;;5054443;28;20453;-76
2021/06/25 03:56:18;;;;;;;0.20;0.20;;;17.50;71.30;;;;;;5038203;28;20029;-76
2021/06/25 03:58:47;;;;;;;0.20;0.20;;;17.60;71.80;;;;;;5046808;28;20094;-76
2021/06/25 04:01:13;;;;;;;0.20;0.20;;;17.60;72.00;;;;;;5079009;28;20025;-76
2021/06/25 04:03:39;;;;;;;0.30;0.20;;;17.60;72.30;;;;;;5064815;28;20028;-76
2021/06/25 04:06:05;;;;;;;0.40;0.30;;;17.60;72.30;;;;;;5039050;28;20025;-76
2021/06/25 04:08:32;;;;;;;0.30;0.30;;;17.60;72.00;;;;;;5053223;28;20037;-76
2021/06/25 04:10:59;;;;;;;0.20;0.20;;;17.60;72.20;;;;;;5057507;28;20029;-76
2021/06/25 04:13:26;;;;;;;0.28;0.28;;;17.50;72.90;;;;;;5038966;28;20878;-76
2021/06/25 04:15:53;;;;;;;0.20;0.20;;;17.60;73.10;;;;;;5050178;28;20119;-76
2021/06/25 04:18:19;;;;;;;0.35;0.30;;;17.40;74.30;;;;;;5055704;28;20434;-76
2021/06/25 04:20:45;;;;;;;0.20;0.20;;;17.40;73.70;;;;;;5057313;28;20025;-78
2021/06/25 04:23:12;;;;;;;0.20;0.20;;;17.30;74.50;;;;;;5056969;28;20021;-77
2021/06/25 04:25:38;;;;;;;0.20;0.20;;;17.40;74.30;;;;;;5058790;28;20082;-76
2021/06/25 04:28:04;;;;;;;0.30;0.30;;;17.30;74.60;;;;;;5039322;28;20080;-75
2021/06/25 04:30:30;;;;;;;0.20;0.20;;;17.30;75.40;;;;;;5038497;28;20047;-75
2021/06/25 04:33:00;;;;;;;0.20;0.20;;;17.30;76.20;;;;;;5046151;28;20041;-75
2021/06/25 04:35:27;;;;;;;0.40;0.30;;;17.30;75.90;;;;;;5051154;28;20025;-75
2021/06/25 04:37:53;;;;;;;0.20;0.20;;;17.30;76.40;;;;;;5047142;28;20172;-75
2021/06/25 04:40:19;;;;;;;0.20;0.20;;;17.30;76.10;;;;;;5048602;28;20045;-74
2021/06/25 04:42:46;;;;;;;0.20;0.20;;;17.30;76.90;;;;;;5046286;28;20399;-75
2021/06/25 04:45:13;;;;;;;0.30;0.30;;;17.30;76.50;;;;;;5047751;28;20017;-74
2021/06/25 04:47:43;;;;;;;0.20;0.20;;;17.30;76.40;;;;;;5047724;28;20472;-74
2021/06/25 04:50:10;;;;;;;0.30;0.30;;;17.30;76.60;;;;;;5046408;28;20017;-75
2021/06/25 04:52:35;;;;;;;0.40;0.30;;;17.30;77.00;;;;;;5047070;28;20096;-75
2021/06/25 04:55:01;;;;;;;0.22;0.20;;;17.30;77.60;;;;;;5046095;28;20059;-74
2021/06/25 04:57:27;;;;;;;0.32;0.30;;;17.40;77.20;;;;;;5045882;28;20037;-75
2021/06/25 04:59:52;;;;;;;0.20;0.20;;;17.40;76.80;;;;;;5064151;28;20025;-75
2021/06/25 05:02:18;;;;;;;0.38;0.30;;;17.30;77.00;;;;;;5054449;28;20210;-74
2021/06/25 05:04:44;;;;;;;0.28;0.20;;;17.40;77.80;;;;;;5037561;28;20032;-74
2021/06/25 05:07:09;;;;;;;0.30;0.20;;;17.40;77.20;;;;;;5037664;28;20033;-74
2021/06/25 05:09:35;;;;;;;0.22;0.20;;;17.30;77.90;;;;;;5045733;28;20033;-73
2021/06/25 05:12:01;;;;;;;0.40;0.30;;;17.50;77.00;;;;;;5048790;28;20028;-76
2021/06/25 05:14:26;;;;;;;0.30;0.30;;;17.50;77.20;;;;;;5048179;28;20025;-72
2021/06/25 05:16:52;;;;;;;0.25;0.20;;;17.50;77.40;;;;;;5054422;28;20065;-73
2021/06/25 05:19:18;;;;;;;0.20;0.20;;;17.50;77.40;;;;;;5048066;28;20075;-73
2021/06/25 05:21:43;;;;;;;0.20;0.20;;;17.50;77.20;;;;;;5045409;28;20068;-73
2021/06/25 05:24:09;;;;;;;0.40;0.30;;;17.50;77.60;;;;;;5043172;28;20649;-73
2021/06/25 05:26:35;;;;;;;0.30;0.30;;;17.50;77.60;;;;;;5048465;28;20025;-73
2021/06/25 05:29:01;;;;;;;0.30;0.30;;;17.60;77.10;;;;;;5050966;28;20071;-73
2021/06/25 05:31:27;;;;;;;0.38;0.30;;;17.60;76.90;;;;;;5048444;28;20032;-73
2021/06/25 05:33:52;;;;;;;0.30;0.30;;;17.50;77.60;;;;;;5036871;28;20037;-74
2021/06/25 05:36:18;;;;;;;0.40;0.30;;;17.60;77.40;;;;;;5040112;28;20037;-76
2021/06/25 05:38:44;;;;;;;0.30;0.30;;;17.60;77.60;;;;;;5039360;28;20029;-73
2021/06/25 05:41:10;;;;;;;0.30;0.30;;;17.70;77.00;;;;;;5037058;28;20025;-73
2021/06/25 05:43:35;;;;;;;0.30;0.30;;;17.70;77.40;;;;;;5040439;28;20096;-73
2021/06/25 05:46:02;;;;;;;0.28;0.28;;;17.70;77.80;;;;;;5057078;28;20027;-73
2021/06/25 05:48:28;;;;;;;0.30;0.30;;;17.70;77.50;;;;;;5055474;28;20066;-73
2021/06/25 05:50:53;;;;;;;0.20;0.20;;;17.60;78.20;;;;;;5041622;28;20041;-73
2021/06/25 05:53:19;;;;;;;0.25;0.25;;;17.70;77.50;;;;;;5051746;28;20439;-74
2021/06/25 05:55:45;;;;;;;0.22;0.20;;;17.70;77.40;;;;;;5056465;28;20071;-73
2021/06/25 05:58:11;;;;;;;0.30;0.30;;;17.80;77.00;;;;;;5072275;28;20028;-73
2021/06/25 06:00:37;;;;;;;0.40;0.30;;;17.80;76.90;;;;;;5038377;28;20030;-73
2021/06/25 06:03:03;;;;;;;0.30;0.30;;;17.80;76.90;;;;;;5036277;28;20033;-74
2021/06/25 06:05:29;;;;;;;0.47;0.30;;;17.80;76.50;;;;;;5038421;28;20034;-73
2021/06/25 06:07:54;;;;;;;0.30;0.30;;;17.80;77.20;;;;;;5043373;28;20111;-73
2021/06/25 06:10:20;;;;;;;0.40;0.30;;;17.80;77.10;;;;;;5053978;28;20032;-73
2021/06/25 06:12:46;;;;;;;0.47;0.30;;;17.80;77.30;;;;;;5056111;28;20032;-73
2021/06/25 06:15:15;;;;;;;0.30;0.30;;;17.80;77.60;;;;;;5055793;28;20087;-75
2021/06/25 06:17:44;;;;;;;0.35;0.30;;;17.70;78.20;;;;;;5053275;28;20088;-74
2021/06/25 06:20:15;;;;;;;0.30;0.30;;;17.70;78.20;;;;;;5056086;28;20509;-73
2021/06/25 06:33:45;;;;;;;0.20;0.20;;;17.90;77.30;;;;;;5053521;28;20034;-73
2021/06/25 06:36:20;;;;;;;0.30;0.30;;;18.00;77.40;;;;;;5052657;28;20094;-73
2021/06/25 06:38:45;;;;;;;0.40;0.40;;;18.00;77.40;;;;;;5053488;28;20139;-75
2021/06/25 06:41:12;;;;;;;0.30;0.30;;;18.10;76.90;;;;;;5038392;28;20117;-73
2021/06/25 06:43:39;;;;;;;0.20;0.20;;;18.10;77.50;;;;;;5053427;28;20075;-73
2021/06/25 06:46:05;;;;;;;0.30;0.30;;;18.20;77.00;;;;;;5046679;28;20484;-73
2021/06/25 06:48:30;;;;;;;0.50;0.30;;;18.20;77.20;;;;;;5034536;28;20154;-73
2021/06/25 06:50:56;;;;;;;0.40;0.30;;;18.30;76.80;;;;;;5051562;28;20100;-73
2021/06/25 06:53:22;;;;;;;0.40;0.30;;;18.10;77.50;;;;;;5055132;28;20415;-73
2021/06/25 06:55:47;;;;;;;0.40;0.30;;;18.10;77.00;;;;;;5041624;28;20042;-73
2021/06/25 06:58:13;;;;;;;0.40;0.22;;;18.20;76.80;;;;;;5035348;28;20076;-73
2021/06/25 07:00:39;;;;;;;0.40;0.30;;;18.20;76.90;;;;;;5075013;28;20107;-73
2021/06/25 07:03:05;;;;;;;0.40;0.30;;;18.30;77.10;;;;;;5074369;28;20050;-73
2021/06/25 07:05:31;;;;;;;0.32;0.30;;;18.30;77.00;;;;;;5056656;28;20033;-73
2021/06/25 07:07:57;;;;;;;0.40;0.30;;;18.30;77.20;;;;;;5055011;28;20036;-73
2021/06/25 07:10:22;;;;;;;0.30;0.30;;;18.40;76.70;;;;;;5051879;28;20069;-73
2021/06/25 07:12:48;;;;;;;0.40;0.30;;;18.50;77.10;;;;;;5052657;28;20530;-73
2021/06/25 07:15:14;;;;;;;0.30;0.30;;;18.60;76.80;;;;;;5064998;28;20091;-75
2021/06/25 07:17:39;;;;;;;0.38;0.30;;;18.80;76.80;;;;;;5048454;28;20028;-73
2021/06/25 07:20:06;;;;;;;0.28;0.20;;;18.90;76.30;;;;;;5050182;28;20033;-74
2021/06/25 07:22:32;;;;;;;0.30;0.22;;;19.00;75.50;;;;;;5048303;28;20032;-74
2021/06/25 07:24:58;;;;;;;0.50;0.30;;;19.20;74.60;;;;;;5051574;28;20043;-73
2021/06/25 07:27:24;;;;;;;0.20;0.20;;;19.40;74.90;;;;;;5053020;28;20135;-74
2021/06/25 07:29:51;;;;;;;0.20;0.20;;;19.30;75.60;;;;;;5054448;28;20056;-74
2021/06/25 07:32:17;;;;;;;0.30;0.30;;;19.40;74.80;;;;;;5055127;28;20044;-74
2021/06/25 07:34:42;;;;;;;0.20;0.20;;;19.30;74.80;;;;;;5067285;28;20038;-74
2021/06/25 07:37:08;;;;;;;0.38;0.20;;;19.40;74.60;;;;;;5048182;28;20029;-74
2021/06/25 07:39:34;;;;;;;0.40;0.20;;;19.40;74.20;;;;;;5052700;28;20032;-75
2021/06/25 07:41:59;;;;;;;0.30;0.20;;;19.50;73.80;;;;;;5034384;28;20044;-74
2021/06/25 07:44:25;;;;;;;0.22;0.20;;;19.50;73.60;;;;;;5036400;28;20062;-75
2021/06/25 07:46:51;;;;;;;0.40;0.22;;;19.60;73.20;;;;;;5034098;28;20057;-75
2021/06/25 07:49:17;;;;;;;0.20;0.20;;;19.80;72.50;;;;;;5033975;28;20025;-74
2021/06/25 07:51:43;;;;;;;0.30;0.20;;;19.90;72.40;;;;;;5033868;28;20034;-75
2021/06/25 07:54:08;;;;;;;0.20;0.20;;;20.00;72.60;;;;;;5035327;28;20044;-75
2021/06/25 07:56:34;;;;;;;0.25;0.10;;;20.10;72.00;;;;;;5034436;28;20034;-75
2021/06/25 07:58:59;;;;;;;0.20;0.20;;;20.20;72.30;;;;;;5046125;28;20021;-75
2021/06/25 08:01:25;;;;;;;0.38;0.20;;;20.10;72.30;;;;;;5072855;28;20115;-75
2021/06/25 08:03:52;;;;;;;0.30;0.20;;;20.10;71.80;;;;;;5047689;28;20032;-75
2021/06/25 08:06:18;;;;;;;0.20;0.20;;;20.10;72.00;;;;;;5073873;28;20025;-75
2021/06/25 08:08:44;;;;;;;0.28;0.20;;;20.10;72.20;;;;;;5053635;28;20060;-75
2021/06/25 08:11:10;;;;;;;0.30;0.20;;;20.20;72.30;;;;;;5046337;28;20038;-75
2021/06/25 08:13:35;;;;;;;0.30;0.20;;;20.10;71.30;;;;;;5049077;28;20036;-75
2021/06/25 08:16:02;;;;;;;0.20;0.20;;;20.30;71.10;;;;;;5039111;28;20041;-75
2021/06/25 08:18:27;;;;;;;0.38;0.20;;;20.40;70.80;;;;;;5037813;28;20037;-75
2021/06/25 08:20:53;;;;;;;0.20;0.20;;;20.50;69.40;;;;;;5038585;28;20033;-74
2021/06/25 08:23:20;;;;;;;0.20;0.20;;;20.60;68.70;;;;;;5034480;28;20116;-75
2021/06/25 08:25:46;;;;;;;0.10;0.10;;;20.60;68.90;;;;;;5038660;28;20021;-75
2021/06/25 08:28:12;;;;;;;0.35;0.20;;;20.60;68.30;;;;;;5052563;28;20055;-75
2021/06/25 08:30:37;;;;;;;0.22;0.20;;;20.40;68.20;;;;;;5036119;28;20056;-75
2021/06/25 08:33:03;;;;;;;0.20;0.20;;;20.40;64.20;;;;;;5035315;28;20492;-75
2021/06/25 08:35:29;;;;;;;0.20;0.20;;;20.30;64.30;;;;;;5045561;28;20040;-75
2021/06/25 08:37:55;;;;;;;0.28;0.20;;;20.20;65.00;;;;;;5054897;28;20097;-75
2021/06/25 08:40:21;;;;;;;0.25;0.20;;;20.30;64.80;;;;;;5055116;28;20022;-75
2021/06/25 08:42:47;;;;;;;0.20;0.20;;;20.30;63.80;;;;;;5054581;28;20081;-75
2021/06/25 08:45:14;;;;;;;0.30;0.20;;;20.40;63.20;;;;;;5055918;28;20025;-74
2021/06/25 08:47:44;;;;;;;0.40;0.20;;;20.50;64.00;;;;;;5053402;28;20488;-78
2021/06/25 08:50:12;;;;;;;0.35;0.20;;;20.70;62.70;;;;;;5045259;28;20500;-75
2021/06/25 08:52:41;;;;;;;0.20;0.10;;;20.90;63.20;;;;;;5045436;28;20025;-75
2021/06/25 08:55:07;;;;;;;0.30;0.20;;;21.10;63.00;;;;;;5046363;28;20701;-75
2021/06/25 08:57:36;;;;;;;0.20;0.10;;;21.00;60.30;;;;;;5057765;28;20025;-75
2021/06/25 09:00:06;;;;;;;0.10;0.10;;;21.10;62.60;;;;;;5041001;28;20064;-75
2021/06/25 09:02:35;;;;;;;0.50;0.20;;;21.10;61.80;;;;;;5045605;28;20100;-75
2021/06/25 09:05:05;;;;;;;0.30;0.20;;;21.20;62.50;;;;;;5046542;28;20098;-75
2021/06/25 09:07:42;;;;;;;0.38;0.20;;;21.30;62.00;;;;;;5046645;28;20017;-75
2021/06/25 09:10:09;;;;;;;0.10;0.10;;;21.30;61.20;;;;;;5041402;28;20116;-75
2021/06/25 09:12:35;;;;;;;0.28;0.10;;;21.30;60.70;;;;;;5051274;28;20017;-75
2021/06/25 09:15:06;;;;;;;0.45;0.20;;;21.20;60.80;;;;;;5051094;28;20029;-75
2021/06/25 09:17:34;;;;;;;0.20;0.17;;;21.20;60.60;;;;;;5045161;28;20067;-75
2021/06/25 09:20:01;;;;;;;0.20;0.20;;;21.20;60.70;;;;;;5044433;28;20028;-75
2021/06/25 09:22:27;;;;;;;0.25;0.13;;;21.20;60.80;;;;;;5047718;28;20150;-75
2021/06/25 09:25:11;;;;;;;0.32;0.20;;;21.30;60.90;;;;;;5045936;28;20056;-74
2021/06/25 09:27:38;;;;;;;0.20;0.10;;;21.40;60.20;;;;;;5046349;28;20107;-75
2021/06/25 09:30:11;;;;;;;0.22;0.20;;;21.60;60.30;;;;;;5045634;28;20064;-75
2021/06/25 09:32:38;;;;;;;0.10;0.10;;;21.80;59.70;;;;;;5044797;28;20029;-75
2021/06/25 09:35:18;;;;;;;0.28;0.15;;;21.80;59.10;;;;;;5044163;28;20063;-75
2021/06/25 09:37:47;;;;;;;0.20;0.10;;;21.80;59.60;;;;;;5045545;28;20048;-75
2021/06/25 09:40:14;;;;;;;0.20;0.10;;;21.70;59.20;;;;;;5047446;28;20025;-75
2021/06/25 09:42:45;;;;;;;0.17;0.17;;;21.80;60.30;;;;;;5043999;28;20018;-75
2021/06/25 09:45:15;;;;;;;0.20;0.10;;;21.80;59.60;;;;;;5045618;28;20028;-75
2021/06/25 09:47:41;;;;;;;;;;;21.90;59.40;;;;;;5041690;28;20029;-75
2021/06/25 09:50:17;;;;;;;0.15;0.10;;;21.80;59.50;;;;;;5041546;28;20501;-75
2021/06/25 09:52:58;;;;;;;0.20;0.10;;;21.80;58.20;;;;;;5035178;28;20032;-75
2021/06/25 09:55:28;;;;;;;0.30;0.20;;;21.70;59.00;;;;;;5036021;28;20029;-75
2021/06/25 10:01:21;;;;;;;0.10;0.10;;;21.80;59.00;;;;;;5075598;28;20129;-76
2021/06/25 10:03:32;;;;;;;0.30;0.20;;;21.90;60.40;;;;;;5045983;28;20606;-76
2021/06/25 10:06:12;;;;;;;0.32;0.20;;;22.00;57.70;;;;;;5041759;28;20028;-76
2021/06/25 10:08:38;;;;;;;0.20;0.20;;;22.10;58.40;;;;;;5052712;28;20421;-76
2021/06/25 10:11:05;;;;;;;0.25;0.10;;;22.30;57.40;;;;;;5055676;28;20044;-75
2021/06/25 10:13:34;;;;;;;0.40;0.20;;;22.40;55.70;;;;;;5041054;28;20017;-74
2021/06/25 10:16:00;;;;;;;0.28;0.10;;;22.40;56.80;;;;;;5047283;28;20092;-75
2021/06/25 10:18:29;;;;;;;0.25;0.20;;;22.40;54.80;;;;;;5052003;28;20049;-75
2021/06/25 10:20:56;;;;;;;0.20;0.10;;;22.40;55.90;;;;;;5046900;28;20032;-75
2021/06/25 10:23:23;;;;;;;0.30;0.15;;;22.70;58.00;;;;;;5045635;28;20022;-75
2021/06/25 10:25:51;;;;;;;0.10;0.10;;;22.80;55.50;;;;;;5044869;28;20033;-75
2021/06/25 10:28:18;;;;;;;0.20;0.10;;;22.80;55.50;;;;;;5050740;28;20124;-75
2021/06/25 10:30:45;;;;;;;0.15;0.10;;;23.00;56.60;;;;;;5040948;28;20025;-75
2021/06/25 10:33:12;;;;;;;0.10;0.10;;;22.90;53.70;;;;;;5044201;28;20511;-75
2021/06/25 10:35:40;;;;;;;0.17;0.10;;;23.00;54.20;;;;;;5041998;28;20435;-76
2021/06/25 10:38:06;;;;;;;0.10;0.10;;;23.10;54.30;;;;;;5049452;28;20082;-76
2021/06/25 10:40:32;;;;;;;0.15;0.10;;;23.30;55.40;;;;;;5044819;28;20047;-78
2021/06/25 10:43:01;;;;;;;0.20;0.13;;;23.40;54.10;;;;;;5051169;28;20036;-77
2021/06/25 10:45:44;;;;;;;0.10;0.10;;;23.40;54.00;;;;;;5042972;28;20029;-77
2021/06/25 10:48:10;;;;;;;0.32;0.10;;;23.50;52.70;;;;;;5052841;28;20037;-74
2021/06/25 10:50:37;;;;;;;0.20;0.10;;;23.60;51.70;;;;;;5047316;28;20025;-75
2021/06/25 10:53:12;;;;;;;0.25;0.10;;;23.50;52.40;;;;;;5050882;28;20476;-75
2021/06/25 10:55:45;;;;;;;0.10;0.10;;;23.50;52.50;;;;;;5043022;28;20112;-75
2021/06/25 10:58:22;;;;;;;0.15;0.10;;;23.40;52.70;;;;;;5049462;28;20097;-75
2021/06/25 11:00:54;;;;;;;0.10;0.10;;;23.50;53.40;;;;;;5044046;28;20431;-75
2021/06/25 11:03:43;;;;;;;0.10;0.10;;;23.60;52.80;;;;;;5045205;28;20106;-74
2021/06/25 11:06:28;;;;;;;0.20;0.10;;;23.50;51.60;;;;;;5043879;28;20618;-75
2021/06/25 11:09:04;;;;;;;0.10;0.10;;;23.50;52.80;;;;;;5046197;28;20483;-76
2021/06/25 11:11:30;;;;;;;0.10;0.10;;;23.60;52.20;;;;;;5045506;28;20022;-74
2021/06/25 11:13:57;;;;;;;0.10;0.10;;;23.70;53.50;;;;;;5043230;28;20170;-73
2021/06/25 11:16:23;;;;;;;0.22;0.13;;;23.60;53.40;;;;;;5050746;28;20033;-74
2021/06/25 11:18:48;;;;;;;0.10;0.10;;;23.60;53.40;;;;;;5043993;28;20032;-74
2021/06/25 11:21:15;;;;;;;0.10;0.10;;;23.60;53.90;;;;;;5044223;28;20017;-74
2021/06/25 11:23:43;;;;;;;0.10;0.10;;;23.50;52.10;;;;;;5043380;28;20486;-74
2021/06/25 11:26:15;;;;;;;0.20;0.10;;;23.40;53.00;;;;;;5044234;28;20017;-74
2021/06/25 11:28:42;;;;;;;0.10;0.10;;;23.40;53.20;;;;;;5044631;28;20045;-74
2021/06/25 11:31:14;;;;;;;0.13;0.10;;;23.40;54.20;;;;;;5042198;28;20484;-74
2021/06/25 11:33:49;;;;;;;0.30;0.10;;;23.40;53.10;;;;;;5041804;28;20028;-74
2021/06/25 11:36:31;;;;;;;0.00;0.00;;;23.40;52.70;;;;;;5043964;28;20106;-74
2021/06/25 11:39:05;;;;;;;0.45;0.15;;;23.40;55.00;;;;;;5041055;28;20038;-74
2021/06/25 11:41:35;;;;;;;0.30;0.20;;;23.40;54.30;;;;;;5038348;28;20033;-73
2021/06/25 11:44:10;;;;;;;0.28;0.20;;;23.40;54.30;;;;;;5036925;28;20033;-74
2021/06/25 11:46:36;;;;;;;0.13;0.10;;;23.40;54.90;;;;;;5050728;28;20028;-72
2021/06/25 11:49:04;;;;;;;0.10;0.10;;;23.30;56.00;;;;;;5054536;28;20033;-72
2021/06/25 11:51:41;;;;;;;0.20;0.10;;;23.40;57.50;;;;;;5053486;28;20021;-72
2021/06/25 11:54:09;;;;;;;0.65;0.20;;;23.40;57.50;;;;;;5052339;28;20032;-72
2021/06/25 11:56:35;;;;;;;0.30;0.10;;;23.40;57.20;;;;;;5054610;28;20025;-72
2021/06/25 11:59:03;;;;;;;0.13;0.10;;;23.30;56.70;;;;;;5052291;28;20033;-72
2021/06/25 12:01:30;;;;;;;0.10;0.10;;;23.30;56.60;;;;;;5048835;28;20026;-72
2021/06/25 12:03:57;;;;;;;0.20;0.15;;;23.40;56.20;;;;;;5033880;28;20044;-72
2021/06/25 12:06:23;;;;;;;0.30;0.17;;;23.30;56.90;;;;;;5045433;28;20075;-72
2021/06/25 12:09:01;;;;;;;0.20;0.10;;;23.20;57.40;;;;;;5046173;28;20033;-73
2021/06/25 12:11:28;;;;;;;0.10;0.10;;;23.20;58.50;;;;;;5044630;28;20033;-72
2021/06/25 12:14:00;;;;;;;0.22;0.13;;;23.20;58.40;;;;;;5046817;28;20037;-73
2021/06/25 12:16:26;;;;;;;0.10;0.10;;;23.30;57.90;;;;;;5063577;28;20025;-73
2021/06/25 12:18:52;;;;;;;0.30;0.10;;;23.30;58.90;;;;;;5051275;28;20029;-73
2021/06/25 12:21:19;;;;;;;0.20;0.10;;;23.40;59.20;;;;;;5047653;28;20018;-73
2021/06/25 12:23:56;;;;;;;0.13;0.10;;;23.40;57.40;;;;;;5045676;28;20539;-73
2021/06/25 12:26:24;;;;;;;0.17;0.10;;;23.50;58.30;;;;;;5047733;28;20052;-73
2021/06/25 12:28:56;;;;;;;0.20;0.15;;;23.60;57.10;;;;;;5044435;28;20049;-73
2021/06/25 12:31:30;;;;;;;0.20;0.10;;;23.70;56.70;;;;;;5047590;28;20025;-73
2021/06/25 12:34:17;;;;;;;0.20;0.10;;;23.40;58.20;;;;;;5046952;28;20025;-73
2021/06/25 12:36:44;;;;;;;0.15;0.10;;;23.30;57.40;;;;;;5046514;28;20140;-73
2021/06/25 12:39:13;;;;;;;0.20;0.10;;;23.50;57.50;;;;;;5048175;28;20109;-73
2021/06/25 12:41:46;;;;;;;0.20;0.10;;;23.60;57.40;;;;;;5044093;28;20402;-73
2021/06/25 12:44:12;;;;;;;0.13;0.10;;;23.40;56.60;;;;;;5045413;28;20055;-73
2021/06/25 12:46:39;;;;;;;0.20;0.15;;;23.50;57.20;;;;;;5045259;28;20018;-72
2021/06/25 12:49:06;;;;;;;0.30;0.15;;;23.30;57.20;;;;;;5046893;28;20077;-73
2021/06/25 12:51:37;;;;;;;0.20;0.10;;;23.20;56.80;;;;;;5047420;28;20086;-73
2021/06/25 12:54:05;;;;;;;0.20;0.10;;;23.20;57.40;;;;;;5048496;28;20059;-72
2021/06/25 12:56:39;;;;;;;0.20;0.10;;;23.10;58.20;;;;;;5047305;28;20527;-73
2021/06/25 12:59:19;;;;;;;0.10;0.10;;;23.20;58.40;;;;;;5050127;28;20025;-72
2021/06/25 13:01:50;;;;;;;0.10;0.10;;;23.30;57.80;;;;;;5046668;28;20097;-73
2021/06/25 13:04:23;;;;;;;0.20;0.10;;;23.50;57.70;;;;;;5046027;28;20065;-73